Terminal Aerodrome Forecast
Issued by NWS Grand Rapids, MI

Home | Current Version | Previous Version | Text Only | Print | Product List | Glossary On
Versions: 1 2 3 4 5 6 7 8 9 10 11 12 13 14 15 16 17 18 19 20 21 22 23 24 25 26 27
000
FTUS43 KGRR 211538 AAC
TAFGRR
TAF AMD
KGRR 211538Z 2116/2212 11006KT 1/2SM FG OVC003
     FM211700 17007KT 2SM BR OVC004
     FM211800 18006KT 4SM BR OVC015
     FM220300 21005KT 1SM BR BKN020
     FM220900 00000KT 1/4SM FG VV002=

USA.gov is the U.S. government's official web portal to all federal, state and local government web resources and services.